createdAt,value
2018-05-07T00:02:10.881Z,19.90
2018-05-07T00:04:39.191Z,19.90
2018-05-07T00:07:07.452Z,19.80
2018-05-07T00:09:36.055Z,19.80
2018-05-07T00:12:04.533Z,19.80
2018-05-07T00:14:32.764Z,19.80
2018-05-07T00:17:00.997Z,19.80
2018-05-07T00:19:29.352Z,19.80
2018-05-07T00:21:57.983Z,19.90
2018-05-07T00:24:26.205Z,19.80
2018-05-07T00:26:55.228Z,19.80
2018-05-07T00:29:23.465Z,19.80
2018-05-07T00:31:52.084Z,19.80
2018-05-07T00:34:20.540Z,19.80
2018-05-07T00:36:48.780Z,19.80
2018-05-07T00:39:17.004Z,19.80
2018-05-07T00:41:47.105Z,19.80
2018-05-07T00:44:15.342Z,19.80
2018-05-07T00:46:43.982Z,19.80
2018-05-07T00:49:12.227Z,19.80
2018-05-07T00:51:40.520Z,19.80
2018-05-07T00:54:08.817Z,19.80
2018-05-07T00:56:37.043Z,19.80
2018-05-07T00:59:05.902Z,19.80
2018-05-07T01:01:34.419Z,19.80
2018-05-07T01:04:02.789Z,19.80
2018-05-07T01:06:31.897Z,19.80
2018-05-07T01:09:00.920Z,19.80
2018-05-07T01:11:29.552Z,19.80
2018-05-07T01:13:58.275Z,19.80
2018-05-07T01:16:26.506Z,19.80
2018-05-07T01:18:54.896Z,19.60
2018-05-07T01:21:23.189Z,19.70
2018-05-07T01:23:51.452Z,19.80
2018-05-07T01:26:20.465Z,19.70
2018-05-07T01:28:48.823Z,19.70
2018-05-07T01:31:17.068Z,19.70
2018-05-07T01:33:45.703Z,19.70
2018-05-07T01:36:14.686Z,19.70
2018-05-07T01:38:43.326Z,19.70
2018-05-07T01:41:11.549Z,19.70
2018-05-07T01:43:40.418Z,19.70
2018-05-07T01:46:09.583Z,19.70
2018-05-07T01:48:38.213Z,19.70
2018-05-07T01:51:06.905Z,19.70
2018-05-07T01:53:35.541Z,19.70
2018-05-07T01:56:04.904Z,19.70
2018-05-07T01:58:33.135Z,19.70
2018-05-07T02:01:02.491Z,19.70
2018-05-07T02:03:30.737Z,19.70
2018-05-07T02:05:59.205Z,19.70
2018-05-07T02:08:27.778Z,19.70
2018-05-07T02:10:56.770Z,19.70
2018-05-07T02:13:25.461Z,19.70
2018-05-07T02:15:53.762Z,19.70
2018-05-07T02:18:22.404Z,19.60
2018-05-07T02:20:50.808Z,19.70
2018-05-07T02:23:19.059Z,19.60
2018-05-07T02:25:48.072Z,19.60
2018-05-07T02:28:16.301Z,19.60
2018-05-07T02:30:44.639Z,19.70
2018-05-07T02:33:13.105Z,19.60
2018-05-07T02:35:41.340Z,19.60
2018-05-07T02:38:09.577Z,19.60
2018-05-07T02:40:37.839Z,19.60
2018-05-07T02:43:06.057Z,19.60
2018-05-07T02:45:34.701Z,19.60
2018-05-07T02:48:02.925Z,19.60
2018-05-07T02:50:31.568Z,19.60
2018-05-07T02:52:59.794Z,19.60
2018-05-07T02:55:29.164Z,19.60
2018-05-07T02:57:57.413Z,19.60
2018-05-07T03:00:25.641Z,19.60
2018-05-07T03:02:54.336Z,19.50
2018-05-07T03:05:22.924Z,19.60
2018-05-07T03:07:51.218Z,19.50
2018-05-07T03:10:19.492Z,19.50
2018-05-07T03:12:47.760Z,19.60
2018-05-07T03:15:16.428Z,19.50
2018-05-07T03:17:45.423Z,19.50
2018-05-07T03:20:14.211Z,19.60
2018-05-07T03:22:43.700Z,19.60
2018-05-07T03:25:12.696Z,19.50
2018-05-07T03:27:41.491Z,19.60
2018-05-07T03:30:09.733Z,19.60
2018-05-07T03:32:38.123Z,19.50
2018-05-07T03:35:07.116Z,19.50
2018-05-07T03:37:36.231Z,19.50
2018-05-07T03:40:04.461Z,19.50
2018-05-07T03:42:32.705Z,19.50
2018-05-07T03:45:00.950Z,19.50
2018-05-07T03:47:29.731Z,19.50
2018-05-07T03:49:58.831Z,19.50
2018-05-07T03:52:27.845Z,19.50
2018-05-07T03:54:56.086Z,19.50
2018-05-07T03:57:25.296Z,19.50
2018-05-07T03:59:53.521Z,19.50
2018-05-07T04:02:21.759Z,19.30
2018-05-07T04:04:49.985Z,19.50
2018-05-07T04:07:18.431Z,19.50
2018-05-07T04:09:46.749Z,19.50
2018-05-07T04:12:15.063Z,19.50
2018-05-07T04:14:44.074Z,19.40
2018-05-07T04:17:30.116Z,19.50
2018-05-07T04:20:10.941Z,19.50
2018-05-07T04:25:44.218Z,19.50
2018-05-07T04:28:13.584Z,19.50
2018-05-07T04:30:42.577Z,19.50
2018-05-07T04:33:10.863Z,19.50
2018-05-07T04:35:39.388Z,19.50
2018-05-07T04:38:07.613Z,19.50
2018-05-07T04:40:36.811Z,19.40
2018-05-07T04:43:05.042Z,19.40
2018-05-07T04:45:33.676Z,19.50
2018-05-07T04:48:02.067Z,19.50
2018-05-07T04:50:31.798Z,19.50
2018-05-07T04:53:00.278Z,19.50
2018-05-07T04:55:28.817Z,19.50
2018-05-07T04:57:57.230Z,19.50
2018-05-07T05:00:25.508Z,19.50
2018-05-07T05:02:54.577Z,19.50
2018-05-07T05:05:22.805Z,19.50
2018-05-07T05:07:51.052Z,19.50
2018-05-07T05:10:19.259Z,19.50
2018-05-07T05:12:47.480Z,19.50
2018-05-07T05:15:16.122Z,19.50
2018-05-07T05:17:44.624Z,19.50
2018-05-07T05:20:12.848Z,19.50
2018-05-07T05:22:41.109Z,19.50
2018-05-07T05:25:09.334Z,19.50
2018-05-07T05:27:38.154Z,19.50
2018-05-07T05:30:06.514Z,19.50
2018-05-07T05:32:35.121Z,19.50
2018-05-07T05:35:04.194Z,19.50
2018-05-07T05:37:32.781Z,19.50
2018-05-07T05:40:01.009Z,19.50
2018-05-07T05:42:30.036Z,19.50
2018-05-07T05:44:59.016Z,19.50
2018-05-07T05:47:28.012Z,19.50
2018-05-07T05:49:56.656Z,19.50
2018-05-07T05:52:27.599Z,19.50
2018-05-07T05:54:57.348Z,19.50
2018-05-07T05:57:26.337Z,19.50
2018-05-07T05:59:55.338Z,19.50
2018-05-07T06:02:23.570Z,19.50
2018-05-07T06:04:51.927Z,19.50
2018-05-07T06:07:20.323Z,19.50
2018-05-07T06:09:48.645Z,19.50
2018-05-07T06:12:16.878Z,19.60
2018-05-07T06:14:45.206Z,19.50
2018-05-07T06:17:13.325Z,19.50
2018-05-07T06:19:42.557Z,19.50
2018-05-07T06:22:10.965Z,19.60
2018-05-07T06:24:39.221Z,19.60
2018-05-07T06:27:07.889Z,19.50
2018-05-07T06:29:37.306Z,19.60
2018-05-07T06:32:06.673Z,19.60
2018-05-07T06:34:34.903Z,19.60
2018-05-07T06:37:04.165Z,19.60
2018-05-07T06:39:32.467Z,19.60
2018-05-07T06:42:00.695Z,19.60
2018-05-07T06:44:28.944Z,19.60
2018-05-07T06:46:57.169Z,19.60
2018-05-07T06:49:25.951Z,19.60
2018-05-07T06:51:54.475Z,19.60
2018-05-07T06:54:22.676Z,19.60
2018-05-07T06:56:50.925Z,19.60
2018-05-07T06:59:19.138Z,19.60
2018-05-07T07:01:48.903Z,19.60
2018-05-07T07:04:17.236Z,19.60
2018-05-07T07:06:46.308Z,19.70
2018-05-07T07:09:15.512Z,19.80
2018-05-07T07:11:44.141Z,19.80
2018-05-07T07:14:12.412Z,19.80
2018-05-07T07:16:40.660Z,19.80
2018-05-07T07:19:09.760Z,19.80
2018-05-07T07:21:38.473Z,19.80
2018-05-07T07:24:06.704Z,19.80
2018-05-07T07:26:35.695Z,19.80
2018-05-07T07:29:05.317Z,19.80
2018-05-07T07:31:33.631Z,19.70
2018-05-07T07:34:01.874Z,19.70
2018-05-07T07:36:30.099Z,19.80
2018-05-07T07:38:59.096Z,19.80
2018-05-07T07:41:28.847Z,19.80
2018-05-07T07:43:57.084Z,19.80
2018-05-07T07:46:25.374Z,19.70
2018-05-07T07:48:53.980Z,19.80
2018-05-07T07:51:22.346Z,19.80
2018-05-07T07:53:50.645Z,19.80
2018-05-07T07:56:19.211Z,19.80
2018-05-07T07:58:47.576Z,19.80
2018-05-07T08:01:16.146Z,19.80
2018-05-07T08:03:45.400Z,19.80
2018-05-07T08:06:13.621Z,19.80
2018-05-07T08:08:42.632Z,19.80
2018-05-07T08:11:10.914Z,19.80
2018-05-07T08:13:39.156Z,19.80
2018-05-07T08:16:07.488Z,19.80
2018-05-07T08:18:35.741Z,19.80
2018-05-07T08:21:03.993Z,19.80
2018-05-07T08:23:32.978Z,19.80
2018-05-07T08:26:01.989Z,19.80
2018-05-07T08:28:30.494Z,19.80
2018-05-07T08:30:58.723Z,19.90
2018-05-07T08:33:26.948Z,19.80
2018-05-07T08:35:55.181Z,19.80
2018-05-07T08:38:23.593Z,19.80
2018-05-07T08:40:52.250Z,19.90
2018-05-07T08:43:21.342Z,19.90
2018-05-07T08:45:49.580Z,19.80
2018-05-07T08:48:17.984Z,19.90
2018-05-07T08:50:46.256Z,19.90
2018-05-07T08:53:15.061Z,19.90
2018-05-07T08:55:43.198Z,19.90
2018-05-07T08:58:11.437Z,19.90
2018-05-07T09:00:39.667Z,19.90
2018-05-07T09:03:07.914Z,19.90
2018-05-07T09:05:36.137Z,19.90
2018-05-07T09:08:04.627Z,19.90
2018-05-07T09:10:32.856Z,19.90
2018-05-07T09:13:01.079Z,19.90
2018-05-07T09:15:29.342Z,19.90
2018-05-07T09:17:58.825Z,19.90
2018-05-07T09:20:27.126Z,19.90
2018-05-07T09:22:55.367Z,20.00
2018-05-07T09:25:24.549Z,20.00
2018-05-07T09:27:53.149Z,20.00
2018-05-07T09:30:21.386Z,19.90
2018-05-07T09:32:49.643Z,19.90
2018-05-07T09:35:17.879Z,20.00
2018-05-07T09:37:46.681Z,20.00
2018-05-07T09:40:14.963Z,20.00
2018-05-07T09:42:43.323Z,20.00
2018-05-07T09:45:11.563Z,20.00
2018-05-07T09:47:39.852Z,20.00
2018-05-07T09:50:08.852Z,20.00
2018-05-07T09:52:37.119Z,20.00
2018-05-07T09:55:06.250Z,20.00
2018-05-07T09:57:34.900Z,20.00
2018-05-07T10:00:03.132Z,20.20
2018-05-07T10:02:31.478Z,20.30
2018-05-07T10:04:59.917Z,20.50
2018-05-07T10:07:28.929Z,20.60
2018-05-07T10:09:57.212Z,20.70
2018-05-07T10:12:25.797Z,20.80
2018-05-07T10:14:54.049Z,20.80
2018-05-07T10:17:22.376Z,20.80
2018-05-07T10:19:51.020Z,20.80
2018-05-07T10:22:19.631Z,20.70
2018-05-07T10:24:49.583Z,20.90
2018-05-07T10:27:18.598Z,20.90
2018-05-07T10:29:48.296Z,20.90
2018-05-07T10:32:16.864Z,20.90
2018-05-07T10:34:45.280Z,20.90
2018-05-07T10:37:13.860Z,21.00
2018-05-07T10:39:42.660Z,21.00
2018-05-07T10:42:11.008Z,21.00
2018-05-07T10:44:40.014Z,21.00
2018-05-07T10:47:08.401Z,21.10
2018-05-07T10:49:36.646Z,21.00
2018-05-07T10:52:05.649Z,21.00
2018-05-07T10:54:33.905Z,21.00
2018-05-07T10:57:02.150Z,21.10
2018-05-07T10:59:30.387Z,21.10
2018-05-07T11:01:59.070Z,21.10
2018-05-07T11:04:27.320Z,21.10
2018-05-07T11:06:55.627Z,21.20
2018-05-07T11:09:23.902Z,21.20
2018-05-07T11:11:52.137Z,21.20
2018-05-07T11:14:20.460Z,21.20
2018-05-07T11:16:49.561Z,21.20
2018-05-07T11:19:18.209Z,21.20
2018-05-07T11:21:46.636Z,21.20
2018-05-07T11:24:14.882Z,21.20
2018-05-07T11:26:43.129Z,21.20
2018-05-07T11:29:11.374Z,21.20
2018-05-07T11:31:40.065Z,21.20
2018-05-07T11:34:08.291Z,21.20
2018-05-07T11:36:36.869Z,21.20
2018-05-07T11:39:06.071Z,21.20
2018-05-07T11:41:34.524Z,21.00
2018-05-07T11:44:03.901Z,20.90
2018-05-07T11:46:32.118Z,20.80
2018-05-07T11:49:01.110Z,20.80
2018-05-07T11:51:29.369Z,20.80
2018-05-07T11:53:58.363Z,20.70
2018-05-07T11:56:26.601Z,20.70
2018-05-07T11:58:54.823Z,20.70
2018-05-07T12:01:23.084Z,20.70
2018-05-07T12:03:52.178Z,20.70
2018-05-07T12:06:20.796Z,20.70
2018-05-07T12:08:49.035Z,20.70
2018-05-07T12:11:18.041Z,20.70
2018-05-07T12:13:46.817Z,20.60
2018-05-07T12:16:15.183Z,20.60
2018-05-07T12:18:43.449Z,20.60
2018-05-07T12:21:12.096Z,20.60
2018-05-07T12:23:40.744Z,20.60
2018-05-07T12:26:09.741Z,20.50
2018-05-07T12:28:38.207Z,20.60
2018-05-07T12:31:06.487Z,20.60
2018-05-07T12:33:34.854Z,20.60
2018-05-07T12:36:03.469Z,20.60
2018-05-07T12:38:31.698Z,20.50
2018-05-07T12:40:59.932Z,20.60
2018-05-07T12:43:28.282Z,20.60
2018-05-07T12:45:56.505Z,20.60
2018-05-07T12:48:25.227Z,20.60
2018-05-07T12:50:53.711Z,20.60
2018-05-07T12:53:22.934Z,20.50
2018-05-07T12:55:52.306Z,20.50
2018-05-07T12:58:20.537Z,20.50
2018-05-07T13:00:48.785Z,20.50
2018-05-07T13:03:17.015Z,20.50
2018-05-07T13:05:45.689Z,20.40
2018-05-07T13:08:13.874Z,20.50
2018-05-07T13:10:42.370Z,20.40
2018-05-07T13:13:10.614Z,20.40
2018-05-07T13:15:39.268Z,20.50
2018-05-07T13:18:07.760Z,20.50
2018-05-07T13:20:36.086Z,20.50
2018-05-07T13:23:05.105Z,20.50
2018-05-07T13:25:33.438Z,20.50
2018-05-07T13:28:02.851Z,20.50
2018-05-07T13:35:30.045Z,20.50
2018-05-07T13:37:58.835Z,20.50
2018-05-07T13:40:27.120Z,20.50
2018-05-07T13:42:55.794Z,20.50
2018-05-07T13:45:24.152Z,20.50
2018-05-07T13:47:52.381Z,20.50
2018-05-07T13:50:21.003Z,20.50
2018-05-07T13:52:49.569Z,20.50
2018-05-07T13:55:17.801Z,20.50
2018-05-07T13:57:46.026Z,20.60
2018-05-07T14:00:15.752Z,20.60
2018-05-07T14:02:45.181Z,20.60
2018-05-07T14:05:14.508Z,20.60
2018-05-07T14:07:43.049Z,20.60
2018-05-07T14:10:11.598Z,20.60
2018-05-07T14:12:40.836Z,20.60
2018-05-07T14:15:09.261Z,20.60
2018-05-07T14:17:38.278Z,20.70
2018-05-07T14:20:07.300Z,20.70
2018-05-07T14:22:36.469Z,20.80
2018-05-07T14:25:05.056Z,20.80
2018-05-07T14:27:33.426Z,20.70
2018-05-07T14:30:02.416Z,20.80
2018-05-07T14:32:31.794Z,20.70
2018-05-07T14:35:00.212Z,20.80
2018-05-07T14:37:28.445Z,20.80
2018-05-07T14:42:26.155Z,20.90
2018-05-07T14:44:54.401Z,20.90
2018-05-07T14:47:23.414Z,20.90
2018-05-07T14:49:51.640Z,21.00
2018-05-07T14:52:19.898Z,21.00
2018-05-07T14:54:48.436Z,21.00
2018-05-07T14:57:16.677Z,21.10
2018-05-07T14:59:44.901Z,21.10
2018-05-07T15:02:13.775Z,21.10
2018-05-07T15:04:42.148Z,21.20
2018-05-07T15:07:10.641Z,21.20
2018-05-07T15:09:38.910Z,21.20
2018-05-07T15:12:07.158Z,21.20
2018-05-07T15:14:35.397Z,21.30
2018-05-07T15:17:03.640Z,21.40
2018-05-07T15:19:31.884Z,21.40
2018-05-07T15:22:00.898Z,21.40
2018-05-07T15:24:34.884Z,21.30
2018-05-07T15:27:03.128Z,21.40
2018-05-07T15:29:31.668Z,21.40
2018-05-07T15:32:00.044Z,21.40
2018-05-07T15:34:28.320Z,21.40
2018-05-07T15:36:56.887Z,21.20
2018-05-07T15:39:25.226Z,21.40
2018-05-07T15:41:53.862Z,21.50
2018-05-07T15:44:22.230Z,21.40
2018-05-07T15:46:51.253Z,21.50
2018-05-07T15:49:19.511Z,21.40
2018-05-07T15:51:48.485Z,21.50
2018-05-07T15:54:16.907Z,21.50
2018-05-07T15:56:45.130Z,21.50
2018-05-07T15:59:13.367Z,21.40
2018-05-07T16:01:41.793Z,21.40
2018-05-07T16:04:10.016Z,21.40
2018-05-07T16:06:38.259Z,21.30
2018-05-07T16:09:06.494Z,21.30
2018-05-07T16:11:35.516Z,21.40
2018-05-07T16:14:04.145Z,21.30
2018-05-07T16:16:33.337Z,21.30
2018-05-07T16:19:01.610Z,21.30
2018-05-07T16:21:31.060Z,21.30
2018-05-07T16:23:59.231Z,21.50
2018-05-07T16:26:28.287Z,21.60
2018-05-07T16:28:56.514Z,21.80
2018-05-07T16:31:25.147Z,21.90
2018-05-07T16:33:53.782Z,22.00
2018-05-07T16:36:22.453Z,22.10
2018-05-07T16:38:51.110Z,22.10
2018-05-07T16:41:19.412Z,22.10
2018-05-07T16:43:48.641Z,22.10
2018-05-07T16:46:18.025Z,22.10
2018-05-07T16:48:46.344Z,22.10
2018-05-07T16:51:14.578Z,22.10
2018-05-07T16:53:42.904Z,22.00
2018-05-07T16:58:41.536Z,21.90
2018-05-07T17:01:09.767Z,21.90
2018-05-07T17:03:38.406Z,21.90
2018-05-07T17:06:06.651Z,21.90
2018-05-07T17:08:35.715Z,21.90
2018-05-07T17:11:04.109Z,21.90
2018-05-07T17:13:32.342Z,21.90
2018-05-07T17:16:01.007Z,21.90
2018-05-07T17:18:29.363Z,21.80
2018-05-07T17:20:58.453Z,21.80
2018-05-07T17:23:27.045Z,21.80
2018-05-07T17:25:55.278Z,21.80
2018-05-07T17:28:23.599Z,21.80
2018-05-07T17:30:52.642Z,21.80
2018-05-07T17:33:21.050Z,21.70
2018-05-07T17:35:49.679Z,21.70
2018-05-07T17:38:18.671Z,21.70
2018-05-07T17:40:47.028Z,21.60
2018-05-07T17:43:15.395Z,21.60
2018-05-07T17:45:59.878Z,21.60
2018-05-07T17:48:40.615Z,21.60
2018-05-07T17:51:08.861Z,21.50
2018-05-07T17:53:38.012Z,21.50
2018-05-07T17:56:06.625Z,21.50
2018-05-07T17:58:35.620Z,21.40
2018-05-07T18:01:03.947Z,21.40
2018-05-07T18:03:32.216Z,21.50
2018-05-07T18:06:00.859Z,21.50
2018-05-07T18:08:29.097Z,21.40
2018-05-07T18:10:57.663Z,21.40
2018-05-07T18:13:25.792Z,21.40
2018-05-07T18:15:54.038Z,21.40
2018-05-07T18:18:23.058Z,21.40
2018-05-07T18:20:51.292Z,21.40
2018-05-07T18:23:20.660Z,21.30
2018-05-07T18:25:49.975Z,21.30
2018-05-07T18:28:18.612Z,21.30
2018-05-07T18:30:46.842Z,21.30
2018-05-07T18:33:15.254Z,21.30
2018-05-07T18:35:43.908Z,21.30
2018-05-07T18:38:12.245Z,21.30
2018-05-07T18:40:40.545Z,21.30
2018-05-07T18:43:08.800Z,21.30
2018-05-07T18:45:37.840Z,21.20
2018-05-07T18:48:06.071Z,21.20
2018-05-07T18:50:36.103Z,21.20
2018-05-07T18:53:04.682Z,21.20
2018-05-07T18:55:32.902Z,21.20
2018-05-07T18:58:01.160Z,21.20
2018-05-07T19:00:29.789Z,21.20
2018-05-07T19:02:58.273Z,21.20
2018-05-07T19:05:26.908Z,21.20
2018-05-07T19:07:55.132Z,21.20
2018-05-07T19:10:23.837Z,21.20
2018-05-07T19:12:53.447Z,21.20
2018-05-07T19:15:22.446Z,21.20
2018-05-07T19:17:50.720Z,21.20
2018-05-07T19:20:19.019Z,21.10
2018-05-07T19:22:47.241Z,21.20
2018-05-07T19:25:15.875Z,21.20
2018-05-07T19:27:44.495Z,21.10
2018-05-07T19:30:12.729Z,21.10
2018-05-07T19:32:41.728Z,21.10
2018-05-07T19:35:11.084Z,21.10
2018-05-07T19:37:39.448Z,21.10
2018-05-07T19:40:08.038Z,21.10
2018-05-07T19:42:36.734Z,21.10
2018-05-07T19:45:05.843Z,21.10
2018-05-07T19:47:34.465Z,21.10
2018-05-07T19:50:04.030Z,21.10
2018-05-07T19:52:33.510Z,21.10
2018-05-07T19:55:01.875Z,21.00
2018-05-07T19:57:30.891Z,21.10
2018-05-07T19:59:59.134Z,21.00
2018-05-07T20:02:27.461Z,21.00
2018-05-07T20:04:55.697Z,21.00
2018-05-07T20:07:24.073Z,21.00
2018-05-07T20:09:53.066Z,21.00
2018-05-07T20:12:22.066Z,21.00
2018-05-07T20:14:51.054Z,21.00
2018-05-07T20:17:20.056Z,21.00
2018-05-07T20:19:48.291Z,21.00
2018-05-07T20:22:18.234Z,21.00
2018-05-07T20:24:46.492Z,21.00
2018-05-07T20:27:14.769Z,21.00
2018-05-07T20:29:43.025Z,21.00
2018-05-07T20:32:11.677Z,21.00
2018-05-07T20:34:39.895Z,21.00
2018-05-07T20:37:08.198Z,21.00
2018-05-07T20:39:36.426Z,21.00
2018-05-07T20:42:04.658Z,21.00
2018-05-07T20:44:32.895Z,21.00
2018-05-07T20:47:02.076Z,21.00
2018-05-07T20:49:30.808Z,21.00
2018-05-07T20:51:59.177Z,20.90
2018-05-07T20:54:27.412Z,21.00
2018-05-07T20:56:55.646Z,21.00
2018-05-07T20:59:24.021Z,20.90
2018-05-07T21:01:52.254Z,21.00
2018-05-07T21:04:20.544Z,21.00
2018-05-07T21:06:49.185Z,21.00
2018-05-07T21:09:17.619Z,21.00
2018-05-07T21:11:45.848Z,20.90
2018-05-07T21:14:14.264Z,21.00
2018-05-07T21:16:43.438Z,20.80
2018-05-07T21:19:11.689Z,20.90
2018-05-07T21:21:40.419Z,21.00
2018-05-07T21:24:09.420Z,20.90
2018-05-07T21:26:37.664Z,20.70
2018-05-07T21:29:06.673Z,21.00
2018-05-07T21:31:35.971Z,20.90
2018-05-07T21:34:04.981Z,20.90
2018-05-07T21:36:33.204Z,20.90
2018-05-07T21:39:02.047Z,20.90
2018-05-07T21:44:00.533Z,20.90
2018-05-07T21:46:29.160Z,20.90
2018-05-07T21:48:58.404Z,20.90
2018-05-07T21:51:26.706Z,20.90
2018-05-07T21:53:55.370Z,20.90
2018-05-07T21:56:24.051Z,20.90
2018-05-07T21:58:52.278Z,20.90
2018-05-07T22:01:20.648Z,20.90
2018-05-07T22:03:48.888Z,20.90
2018-05-07T22:06:17.138Z,20.80
2018-05-07T22:08:45.449Z,20.90
2018-05-07T22:11:13.807Z,20.90
2018-05-07T22:13:44.953Z,20.90
2018-05-07T22:16:13.529Z,20.90
2018-05-07T22:18:41.739Z,20.80
2018-05-07T22:21:09.969Z,20.80
2018-05-07T22:23:38.961Z,20.80
2018-05-07T22:26:08.330Z,20.80
2018-05-07T22:28:37.473Z,20.80
2018-05-07T22:31:05.729Z,20.80
2018-05-07T22:33:34.492Z,20.80
2018-05-07T22:36:02.717Z,20.80
2018-05-07T22:38:30.951Z,20.80
2018-05-07T22:40:59.948Z,20.80
2018-05-07T22:43:28.190Z,20.80
2018-05-07T22:45:56.925Z,20.80
2018-05-07T22:48:25.608Z,20.80
2018-05-07T22:50:54.294Z,20.80
2018-05-07T22:53:23.289Z,20.80
2018-05-07T22:55:51.533Z,20.80
2018-05-07T22:58:20.160Z,20.80
2018-05-07T23:00:49.210Z,20.80
2018-05-07T23:03:18.162Z,20.80
2018-05-07T23:05:46.467Z,20.80
2018-05-07T23:08:14.794Z,20.80
2018-05-07T23:10:43.052Z,20.80
2018-05-07T23:13:12.061Z,20.80
2018-05-07T23:15:40.288Z,20.80
2018-05-07T23:18:08.532Z,20.80
2018-05-07T23:20:37.166Z,20.80
2018-05-07T23:23:06.489Z,20.80
2018-05-07T23:25:35.080Z,20.80
2018-05-07T23:28:03.754Z,20.80
2018-05-07T23:30:33.342Z,20.80
2018-05-07T23:33:02.363Z,20.80
2018-05-07T23:35:31.053Z,20.80
2018-05-07T23:37:59.401Z,20.70
2018-05-07T23:40:28.048Z,20.80
2018-05-07T23:42:56.317Z,20.70
2018-05-07T23:45:25.044Z,20.70
2018-05-07T23:47:53.642Z,20.70
2018-05-07T23:50:22.327Z,20.70
2018-05-07T23:52:50.649Z,20.70
2018-05-07T23:55:19.214Z,20.70
2018-05-07T23:57:47.946Z,20.70
